Time;durP1;ratioP1;P1;durP2;ratioP2;P2;SDS_P1;SDS_P2;PMS_P1;PMS_P2;Temp;Humidity;BMP_temperature;BMP_pressure;BME280_temperature;BME280_humidity;BME280_pressure;Samples;Min_cycle;Max_cycle;Signal;HPM_P1;HPM_P2
2022/06/28 00:00:07;;;;;;;2.37;1.20;;;;;;;;;;515984;28;1439;-85
2022/06/28 00:00:23;;;;;;;2.80;1.23;;;;;;;;;;515792;28;1603;-85
2022/06/28 00:00:38;;;;;;;1.75;1.20;;;;;;;;;;516202;28;1690;-85
2022/06/28 00:00:54;;;;;;;2.03;1.15;;;;;;;;;;516318;28;1500;-85
2022/06/28 00:01:09;;;;;;;2.53;1.20;;;;;;;;;;514549;28;1401;-85
2022/06/28 00:01:25;;;;;;;2.93;1.20;;;;;;;;;;513704;28;1552;-85
2022/06/28 00:01:40;;;;;;;3.38;1.30;;;;;;;;;;513369;28;2081;-85
2022/06/28 00:01:57;;;;;;;3.00;1.37;;;;;;;;;;511038;29;1750;-85
2022/06/28 00:02:12;;;;;;;2.85;1.33;;;;;;;;;;510027;29;1242;-85
2022/06/28 00:02:28;;;;;;;2.45;1.20;;;;;;;;;;514630;28;1457;-85
2022/06/28 00:02:44;;;;;;;3.00;1.20;;;;;;;;;;514147;28;1460;-85
2022/06/28 00:02:59;;;;;;;4.68;1.20;;;;;;;;;;514023;28;1617;-85
2022/06/28 00:03:14;;;;;;;4.73;1.30;;;;;;;;;;515994;28;1436;-85
2022/06/28 00:03:30;;;;;;;5.80;1.40;;;;;;;;;;515797;28;1480;-85
2022/06/28 00:03:45;;;;;;;4.75;1.30;;;;;;;;;;515548;28;1410;-85
2022/06/28 00:04:00;;;;;;;2.37;1.13;;;;;;;;;;515274;28;1602;-85
2022/06/28 00:04:17;;;;;;;2.10;1.10;;;;;;;;;;515370;28;1431;-85
2022/06/28 00:04:32;;;;;;;1.58;1.10;;;;;;;;;;514350;28;1486;-85
2022/06/28 00:04:48;;;;;;;2.70;1.20;;;;;;;;;;509415;29;1193;-84
2022/06/28 00:05:04;;;;;;;3.90;1.30;;;;;;;;;;510192;29;1664;-85
2022/06/28 00:05:19;;;;;;;3.10;1.33;;;;;;;;;;511655;28;1450;-85
2022/06/28 00:05:35;;;;;;;2.20;1.30;;;;;;;;;;510973;28;1672;-84
2022/06/28 00:05:50;;;;;;;2.17;1.20;;;;;;;;;;510168;29;1478;-85
2022/06/28 00:06:06;;;;;;;2.75;1.38;;;;;;;;;;511603;29;1502;-85
2022/06/28 00:06:21;;;;;;;3.13;1.30;;;;;;;;;;511948;28;1762;-85
2022/06/28 00:06:37;;;;;;;4.30;1.20;;;;;;;;;;514009;28;1644;-85
2022/06/28 00:06:53;;;;;;;3.78;1.30;;;;;;;;;;513977;28;1511;-84
2022/06/28 00:07:08;;;;;;;2.95;1.30;;;;;;;;;;513584;28;1553;-84
2022/06/28 00:07:24;;;;;;;4.22;1.30;;;;;;;;;;515578;28;1451;-84
2022/06/28 00:07:40;;;;;;;4.67;1.30;;;;;;;;;;517003;28;1375;-85
2022/06/28 00:07:56;;;;;;;4.00;1.30;;;;;;;;;;514238;28;1703;-85
2022/06/28 00:08:11;;;;;;;3.10;1.30;;;;;;;;;;514546;28;1429;-85
2022/06/28 00:08:27;;;;;;;2.03;1.20;;;;;;;;;;513700;28;1785;-84
2022/06/28 00:08:42;;;;;;;2.33;1.30;;;;;;;;;;513894;28;1652;-85
2022/06/28 00:08:57;;;;;;;3.23;1.40;;;;;;;;;;516224;28;1681;-85
2022/06/28 00:09:14;;;;;;;3.05;1.40;;;;;;;;;;515608;28;1499;-85
2022/06/28 00:09:29;;;;;;;3.10;1.40;;;;;;;;;;515664;28;1272;-85
2022/06/28 00:09:45;;;;;;;3.90;1.30;;;;;;;;;;516074;28;1819;-85
2022/06/28 00:10:01;;;;;;;4.20;1.30;;;;;;;;;;516478;28;1388;-86
2022/06/28 00:10:17;;;;;;;2.15;1.30;;;;;;;;;;517171;28;1443;-85
2022/06/28 00:10:32;;;;;;;2.20;1.35;;;;;;;;;;517635;28;1527;-86
2022/06/28 00:10:48;;;;;;;2.90;1.40;;;;;;;;;;516428;28;1475;-85
2022/06/28 00:11:04;;;;;;;2.77;1.40;;;;;;;;;;516498;28;1429;-86
2022/06/28 00:11:19;;;;;;;3.30;1.52;;;;;;;;;;516779;28;1349;-85
2022/06/28 00:11:34;;;;;;;3.70;1.50;;;;;;;;;;516773;28;1058;-85
2022/06/28 00:11:51;;;;;;;2.57;1.40;;;;;;;;;;516486;28;1533;-86
2022/06/28 00:12:07;;;;;;;2.42;1.40;;;;;;;;;;516459;28;1429;-85
2022/06/28 00:12:22;;;;;;;3.78;1.38;;;;;;;;;;514255;28;1415;-85
2022/06/28 00:12:38;;;;;;;3.50;1.50;;;;;;;;;;515193;28;1774;-85
2022/06/28 00:12:54;;;;;;;2.38;1.40;;;;;;;;;;513360;28;1616;-85
2022/06/28 00:13:09;;;;;;;1.97;1.30;;;;;;;;;;513387;28;2116;-85
2022/06/28 00:13:25;;;;;;;2.53;1.30;;;;;;;;;;514181;28;1589;-85
2022/06/28 00:13:41;;;;;;;3.20;1.33;;;;;;;;;;513847;28;1923;-85
2022/06/28 00:13:56;;;;;;;2.85;1.40;;;;;;;;;;515714;28;1524;-85
2022/06/28 00:16:06;;;;;;;3.33;1.80;;;;;;;;;;517255;28;714;-85
2022/06/28 00:16:22;;;;;;;2.90;1.98;;;;;;;;;;516552;28;1557;-85
2022/06/28 00:16:37;;;;;;;2.90;1.90;;;;;;;;;;516817;28;1477;-85
2022/06/28 00:16:53;;;;;;;3.20;2.00;;;;;;;;;;515888;28;1158;-85
2022/06/28 00:17:08;;;;;;;4.07;2.00;;;;;;;;;;513769;28;1544;-85
2022/06/28 00:17:23;;;;;;;6.57;2.00;;;;;;;;;;514068;28;1629;-85
2022/06/28 00:17:39;;;;;;;5.77;2.17;;;;;;;;;;513983;28;1412;-85
2022/06/28 00:17:54;;;;;;;3.17;2.15;;;;;;;;;;513678;28;1623;-85
2022/06/28 00:18:10;;;;;;;3.00;2.05;;;;;;;;;;512847;28;1298;-86
2022/06/28 00:18:25;;;;;;;2.33;2.00;;;;;;;;;;515828;28;1321;-85
2022/06/28 00:18:41;;;;;;;2.57;2.10;;;;;;;;;;515839;28;1390;-84
2022/06/28 00:18:56;;;;;;;4.53;2.00;;;;;;;;;;516254;28;1599;-85
2022/06/28 00:19:13;;;;;;;4.88;2.08;;;;;;;;;;517007;28;1411;-85
2022/06/28 00:19:28;;;;;;;2.60;2.00;;;;;;;;;;514410;28;1576;-85
2022/06/28 00:19:44;;;;;;;2.30;1.80;;;;;;;;;;513711;28;1583;-85
2022/06/28 00:19:59;;;;;;;3.93;1.97;;;;;;;;;;513619;28;1453;-85
2022/06/28 00:20:15;;;;;;;3.90;2.00;;;;;;;;;;514061;28;1637;-85
2022/06/28 00:20:30;;;;;;;3.17;1.90;;;;;;;;;;513907;28;1530;-85
2022/06/28 00:20:45;;;;;;;3.73;1.90;;;;;;;;;;514632;28;1392;-85
2022/06/28 00:21:02;;;;;;;3.40;1.90;;;;;;;;;;513853;28;1798;-85
2022/06/28 00:21:17;;;;;;;2.83;1.92;;;;;;;;;;514251;28;1562;-85
2022/06/28 00:21:32;;;;;;;2.13;1.90;;;;;;;;;;516847;28;1435;-85
2022/06/28 00:21:49;;;;;;;3.10;1.95;;;;;;;;;;514900;28;1518;-85
2022/06/28 00:22:04;;;;;;;3.50;1.80;;;;;;;;;;515468;28;1475;-85
2022/06/28 00:22:20;;;;;;;3.53;2.00;;;;;;;;;;516518;28;1738;-84
2022/06/28 00:22:35;;;;;;;3.83;2.10;;;;;;;;;;515330;28;1385;-85
2022/06/28 00:22:51;;;;;;;4.28;2.17;;;;;;;;;;512103;28;1633;-85
2022/06/28 00:23:07;;;;;;;5.70;2.40;;;;;;;;;;511518;29;1490;-85
2022/06/28 00:23:22;;;;;;;4.88;2.40;;;;;;;;;;514706;28;1428;-85
2022/06/28 00:23:39;;;;;;;2.97;2.20;;;;;;;;;;516055;28;1723;-86
2022/06/28 00:23:55;;;;;;;3.65;2.05;;;;;;;;;;516408;28;1783;-85
2022/06/28 00:24:11;;;;;;;2.85;2.05;;;;;;;;;;513664;28;1735;-85
2022/06/28 00:24:26;;;;;;;2.83;1.90;;;;;;;;;;512011;28;1463;-85
2022/06/28 00:24:42;;;;;;;3.75;2.00;;;;;;;;;;512136;28;1407;-85
2022/06/28 00:24:57;;;;;;;4.43;2.07;;;;;;;;;;513674;28;1555;-85
2022/06/28 00:25:13;;;;;;;4.97;1.90;;;;;;;;;;513961;28;1480;-85
2022/06/28 00:25:29;;;;;;;4.13;2.00;;;;;;;;;;511801;28;1497;-85
2022/06/28 00:25:44;;;;;;;3.97;2.10;;;;;;;;;;511521;28;1522;-85
2022/06/28 00:26:00;;;;;;;3.80;2.00;;;;;;;;;;514381;28;1512;-85
2022/06/28 00:26:16;;;;;;;3.63;2.05;;;;;;;;;;512385;28;1696;-84
2022/06/28 00:26:31;;;;;;;2.83;2.10;;;;;;;;;;512040;28;1505;-85
2022/06/28 00:26:47;;;;;;;2.90;2.03;;;;;;;;;;511441;29;1708;-85
2022/06/28 00:27:04;;;;;;;4.40;2.20;;;;;;;;;;514269;28;1520;-84
2022/06/28 00:27:19;;;;;;;4.90;2.40;;;;;;;;;;513448;28;1496;-85
2022/06/28 00:27:34;;;;;;;5.10;2.57;;;;;;;;;;512966;28;1430;-85
2022/06/28 00:27:50;;;;;;;4.32;2.40;;;;;;;;;;513400;28;1553;-85
2022/06/28 00:28:05;;;;;;;3.10;2.40;;;;;;;;;;513912;28;1633;-85
2022/06/28 00:28:21;;;;;;;3.92;2.42;;;;;;;;;;513732;28;1397;-85
2022/06/28 00:28:37;;;;;;;4.13;2.33;;;;;;;;;;512407;28;1521;-85
2022/06/28 00:28:53;;;;;;;3.40;2.30;;;;;;;;;;511866;28;1610;-85
2022/06/28 00:29:08;;;;;;;3.92;2.30;;;;;;;;;;510575;29;1542;-85
2022/06/28 00:29:23;;;;;;;3.80;2.30;;;;;;;;;;510305;29;1481;-85
2022/06/28 00:29:39;;;;;;;3.65;2.20;;;;;;;;;;513653;28;1480;-85
2022/06/28 00:29:54;;;;;;;3.73;2.13;;;;;;;;;;513220;28;1436;-85
2022/06/28 00:30:11;;;;;;;2.90;2.40;;;;;;;;;;514770;28;1734;-85
2022/06/28 00:30:26;;;;;;;3.47;2.50;;;;;;;;;;517145;28;1615;-85
2022/06/28 00:30:41;;;;;;;3.23;2.30;;;;;;;;;;514515;28;1606;-85
2022/06/28 00:30:57;;;;;;;3.15;2.22;;;;;;;;;;514918;28;1607;-85
2022/06/28 00:31:12;;;;;;;3.87;2.17;;;;;;;;;;514717;28;1460;-85
2022/06/28 00:31:28;;;;;;;3.50;2.10;;;;;;;;;;513971;28;1370;-85
2022/06/28 00:31:44;;;;;;;3.45;2.20;;;;;;;;;;515846;28;1965;-85
2022/06/28 00:31:59;;;;;;;3.03;2.10;;;;;;;;;;515218;28;1745;-85
2022/06/28 00:32:14;;;;;;;3.63;2.23;;;;;;;;;;514252;28;1547;-85
2022/06/28 00:32:30;;;;;;;5.18;2.33;;;;;;;;;;514100;28;1482;-85
2022/06/28 00:32:46;;;;;;;4.90;2.30;;;;;;;;;;513125;28;1593;-85
2022/06/28 00:33:01;;;;;;;4.00;2.30;;;;;;;;;;518544;28;1450;-85
2022/06/28 00:33:17;;;;;;;3.00;2.40;;;;;;;;;;517380;28;1405;-84
2022/06/28 00:33:33;;;;;;;2.92;2.42;;;;;;;;;;515753;28;1961;-85
2022/06/28 00:33:48;;;;;;;3.35;2.33;;;;;;;;;;515202;28;1361;-85
2022/06/28 00:34:04;;;;;;;3.47;2.47;;;;;;;;;;516249;28;1436;-85
2022/06/28 00:34:19;;;;;;;3.58;2.60;;;;;;;;;;516312;28;1552;-85
2022/06/28 00:34:35;;;;;;;3.83;2.57;;;;;;;;;;511504;28;1715;-85
2022/06/28 00:34:50;;;;;;;4.93;2.50;;;;;;;;;;510390;29;1434;-85
2022/06/28 00:35:06;;;;;;;3.77;2.40;;;;;;;;;;509644;29;1568;-85
2022/06/28 00:35:22;;;;;;;4.10;2.40;;;;;;;;;;511599;28;1381;-85
2022/06/28 00:35:37;;;;;;;4.25;2.33;;;;;;;;;;511621;28;1783;-85
2022/06/28 00:35:52;;;;;;;2.83;2.47;;;;;;;;;;510122;29;1370;-85
2022/06/28 00:36:08;;;;;;;3.15;2.70;;;;;;;;;;511402;28;1517;-85
2022/06/28 00:36:23;;;;;;;3.47;2.63;;;;;;;;;;512600;28;1545;-85
2022/06/28 00:36:39;;;;;;;4.13;2.57;;;;;;;;;;511973;28;1540;-84
2022/06/28 00:36:54;;;;;;;4.28;2.50;;;;;;;;;;512873;28;1476;-85
2022/06/28 00:37:10;;;;;;;3.03;2.40;;;;;;;;;;514747;28;1398;-85
2022/06/28 00:37:26;;;;;;;2.60;2.40;;;;;;;;;;516925;28;1518;-86
2022/06/28 00:37:43;;;;;;;2.90;2.38;;;;;;;;;;517002;28;1706;-85
2022/06/28 00:37:58;;;;;;;4.75;2.45;;;;;;;;;;518706;28;1702;-85
2022/06/28 00:38:14;;;;;;;5.33;2.60;;;;;;;;;;518299;28;1634;-85
2022/06/28 00:38:29;;;;;;;4.05;2.40;;;;;;;;;;518294;28;1550;-85
2022/06/28 00:38:45;;;;;;;3.80;2.30;;;;;;;;;;515622;28;1386;-85
2022/06/28 00:39:00;;;;;;;4.47;2.37;;;;;;;;;;513394;28;1508;-85
2022/06/28 00:39:16;;;;;;;3.87;2.23;;;;;;;;;;511960;29;1400;-84
2022/06/28 00:39:31;;;;;;;3.30;2.20;;;;;;;;;;511207;28;1552;-85
2022/06/28 00:39:47;;;;;;;3.50;2.33;;;;;;;;;;515365;28;1663;-85
2022/06/28 00:40:03;;;;;;;3.97;2.30;;;;;;;;;;516810;28;1523;-85
2022/06/28 00:40:18;;;;;;;3.70;2.40;;;;;;;;;;516238;28;1449;-85
2022/06/28 00:40:42;;;;;;;2.80;2.50;;;;;;;;;;516845;28;1471;-85
2022/06/28 00:40:57;;;;;;;2.50;2.30;;;;;;;;;;517397;28;1376;-85
2022/06/28 00:41:13;;;;;;;4.40;2.23;;;;;;;;;;516401;28;1412;-85
2022/06/28 00:41:28;;;;;;;5.47;2.50;;;;;;;;;;515047;28;1370;-85
2022/06/28 00:41:44;;;;;;;3.47;2.63;;;;;;;;;;513929;28;1620;-85
2022/06/28 00:42:00;;;;;;;3.58;2.55;;;;;;;;;;513343;28;1720;-85
2022/06/28 00:42:16;;;;;;;5.00;2.73;;;;;;;;;;513866;28;1488;-85
2022/06/28 00:42:32;;;;;;;4.88;2.85;;;;;;;;;;515142;28;1645;-85
2022/06/28 00:42:47;;;;;;;4.70;3.00;;;;;;;;;;514096;28;1525;-85
2022/06/28 00:43:03;;;;;;;3.80;2.90;;;;;;;;;;511864;28;1648;-85
2022/06/28 00:43:20;;;;;;;3.05;2.70;;;;;;;;;;512604;28;1514;-85
2022/06/28 00:43:36;;;;;;;4.32;2.80;;;;;;;;;;514587;28;1719;-85
2022/06/28 00:43:51;;;;;;;4.85;2.92;;;;;;;;;;514299;28;1677;-85
2022/06/28 00:44:09;;;;;;;4.63;3.10;;;;;;;;;;514925;28;1446;-85
2022/06/28 00:44:25;;;;;;;5.53;3.08;;;;;;;;;;515599;28;1792;-85
2022/06/28 00:44:40;;;;;;;6.22;2.90;;;;;;;;;;513572;28;1729;-85
2022/06/28 00:44:58;;;;;;;5.43;3.00;;;;;;;;;;516079;28;1579;-85
2022/06/28 00:45:14;;;;;;;3.78;3.00;;;;;;;;;;515330;28;1735;-85
2022/06/28 00:45:29;;;;;;;3.50;3.10;;;;;;;;;;515147;28;1579;-85
2022/06/28 00:45:46;;;;;;;3.50;3.20;;;;;;;;;;516370;28;1576;-85
2022/06/28 00:46:02;;;;;;;5.07;3.10;;;;;;;;;;516284;28;1400;-85
2022/06/28 00:46:18;;;;;;;5.35;3.22;;;;;;;;;;517501;28;1674;-85
2022/06/28 00:46:33;;;;;;;3.92;3.40;;;;;;;;;;519018;28;1825;-85
2022/06/28 00:46:49;;;;;;;5.67;3.50;;;;;;;;;;517867;28;1577;-85
2022/06/28 00:47:07;;;;;;;5.97;3.70;;;;;;;;;;518280;28;1792;-85
2022/06/28 00:47:22;;;;;;;5.45;3.70;;;;;;;;;;516880;28;1570;-85
2022/06/28 00:47:39;;;;;;;5.53;3.67;;;;;;;;;;514658;28;1507;-85
2022/06/28 00:47:55;;;;;;;5.30;3.67;;;;;;;;;;514433;28;1650;-85
2022/06/28 00:48:13;;;;;;;5.72;3.50;;;;;;;;;;515750;28;1519;-85
2022/06/28 00:48:29;;;;;;;5.20;3.50;;;;;;;;;;516218;28;1547;-85
2022/06/28 00:48:44;;;;;;;5.38;3.70;;;;;;;;;;515791;28;1530;-85
2022/06/28 00:49:01;;;;;;;4.27;3.53;;;;;;;;;;516369;28;1576;-85
2022/06/28 00:49:17;;;;;;;4.50;3.70;;;;;;;;;;515221;28;1534;-85
2022/06/28 00:49:33;;;;;;;6.07;3.80;;;;;;;;;;516397;28;1718;-85
2022/06/28 00:49:48;;;;;;;6.68;3.88;;;;;;;;;;514808;28;1161;-85
2022/06/28 00:50:04;;;;;;;6.83;4.27;;;;;;;;;;514270;28;1751;-85
2022/06/28 00:50:19;;;;;;;7.13;4.28;;;;;;;;;;514347;28;1396;-85
2022/06/28 00:50:36;;;;;;;7.27;4.00;;;;;;;;;;512385;29;1166;-85
2022/06/28 00:50:52;;;;;;;7.28;3.97;;;;;;;;;;512317;28;1296;-85
2022/06/28 00:51:08;;;;;;;7.85;4.07;;;;;;;;;;514186;28;1290;-85
2022/06/28 00:51:24;;;;;;;5.82;3.95;;;;;;;;;;515130;28;1520;-85
2022/06/28 00:51:40;;;;;;;4.93;4.10;;;;;;;;;;516576;28;1711;-85
2022/06/28 00:51:58;;;;;;;5.20;4.03;;;;;;;;;;518136;28;1750;-85
2022/06/28 00:52:14;;;;;;;4.47;3.80;;;;;;;;;;516208;28;1599;-85
2022/06/28 00:52:29;;;;;;;6.50;4.00;;;;;;;;;;516582;28;1958;-85
2022/06/28 00:53:12;;;;;;;6.03;4.07;;;;;;;;;;516912;28;1737;-85
2022/06/28 00:53:28;;;;;;;5.00;4.00;;;;;;;;;;515302;28;1525;-85
2022/06/28 00:53:43;;;;;;;5.68;3.88;;;;;;;;;;518349;28;1902;-85
2022/06/28 00:53:59;;;;;;;7.28;3.95;;;;;;;;;;516359;28;1541;-85
2022/06/28 00:54:14;;;;;;;6.53;4.10;;;;;;;;;;516357;28;1568;-85
2022/06/28 00:54:30;;;;;;;5.87;3.90;;;;;;;;;;516226;28;1507;-85
2022/06/28 00:54:45;;;;;;;9.30;4.25;;;;;;;;;;519467;28;1553;-85
2022/06/28 00:55:01;;;;;;;9.50;4.50;;;;;;;;;;518857;28;1368;-85
2022/06/28 00:55:16;;;;;;;7.00;4.40;;;;;;;;;;517925;28;1395;-85
2022/06/28 00:55:32;;;;;;;6.00;4.40;;;;;;;;;;519287;28;1458;-85
2022/06/28 00:55:47;;;;;;;5.60;4.22;;;;;;;;;;519541;28;1549;-85
2022/06/28 00:56:03;;;;;;;6.00;4.30;;;;;;;;;;517395;28;1389;-85
2022/06/28 00:56:18;;;;;;;6.53;4.35;;;;;;;;;;514737;28;1501;-85
2022/06/28 00:56:34;;;;;;;7.07;4.10;;;;;;;;;;513016;28;1700;-86
2022/06/28 00:56:49;;;;;;;5.82;3.90;;;;;;;;;;512382;28;1719;-85
2022/06/28 00:57:05;;;;;;;5.13;4.23;;;;;;;;;;514643;28;1345;-85
2022/06/28 00:57:20;;;;;;;5.60;4.20;;;;;;;;;;513801;28;1600;-85
2022/06/28 00:57:36;;;;;;;6.00;3.83;;;;;;;;;;514033;28;1559;-85
2022/06/28 00:57:51;;;;;;;5.55;3.97;;;;;;;;;;512923;28;1642;-85
2022/06/28 00:58:07;;;;;;;5.60;4.20;;;;;;;;;;514227;28;1502;-85
2022/06/28 00:58:23;;;;;;;6.00;4.22;;;;;;;;;;516142;28;1558;-85
2022/06/28 00:58:38;;;;;;;4.78;4.10;;;;;;;;;;517984;28;1952;-85
2022/06/28 00:58:55;;;;;;;4.70;4.17;;;;;;;;;;515991;28;1508;-85
2022/06/28 00:59:10;;;;;;;6.32;4.15;;;;;;;;;;516418;28;1506;-85
2022/06/28 00:59:26;;;;;;;6.30;4.00;;;;;;;;;;514020;28;1565;-86
2022/06/28 00:59:41;;;;;;;4.47;3.95;;;;;;;;;;514346;28;1443;-85
2022/06/28 00:59:56;;;;;;;4.27;3.87;;;;;;;;;;515235;28;1520;-86
2022/06/28 01:00:13;;;;;;;5.82;4.03;;;;;;;;;;513807;28;1442;-85
2022/06/28 01:00:30;;;;;;;6.53;4.30;;;;;;;;;;514923;28;1549;-85
2022/06/28 01:00:48;;;;;;;5.03;4.20;;;;;;;;;;515364;28;1606;-85
2022/06/28 01:01:03;;;;;;;5.53;4.05;;;;;;;;;;514632;28;1559;-85
2022/06/28 01:01:20;;;;;;;5.87;4.27;;;;;;;;;;513860;28;1378;-85
2022/06/28 01:01:35;;;;;;;5.00;4.47;;;;;;;;;;514430;28;1432;-85
2022/06/28 01:01:51;;;;;;;5.73;4.17;;;;;;;;;;515422;28;1601;-85
2022/06/28 01:02:07;;;;;;;7.93;4.25;;;;;;;;;;514715;28;1711;-85
2022/06/28 01:02:22;;;;;;;7.07;4.40;;;;;;;;;;513367;28;1535;-85
2022/06/28 01:02:37;;;;;;;5.93;4.17;;;;;;;;;;512371;28;1610;-85
2022/06/28 01:02:54;;;;;;;5.97;3.90;;;;;;;;;;513247;28;1442;-85
2022/06/28 01:03:12;;;;;;;4.82;4.00;;;;;;;;;;514104;28;1655;-86
2022/06/28 01:03:28;;;;;;;5.78;4.20;;;;;;;;;;516497;28;1609;-85
2022/06/28 01:03:43;;;;;;;5.40;4.10;;;;;;;;;;516204;28;1443;-85
2022/06/28 01:03:59;;;;;;;5.17;3.90;;;;;;;;;;515945;28;1638;-85
2022/06/28 01:04:15;;;;;;;5.13;3.90;;;;;;;;;;518122;28;1455;-85
2022/06/28 01:04:30;;;;;;;6.55;4.13;;;;;;;;;;516348;28;1487;-85
2022/06/28 01:04:46;;;;;;;6.33;4.10;;;;;;;;;;516545;28;1574;-85
2022/06/28 01:05:01;;;;;;;4.35;3.80;;;;;;;;;;517864;28;1754;-85
2022/06/28 01:05:19;;;;;;;5.38;3.95;;;;;;;;;;516173;28;1440;-85
2022/06/28 01:05:36;;;;;;;7.63;4.20;;;;;;;;;;515300;28;1739;-85
2022/06/28 01:05:52;;;;;;;7.70;4.30;;;;;;;;;;514241;28;1660;-85
2022/06/28 01:06:08;;;;;;;4.55;4.10;;;;;;;;;;514152;28;1418;-85
2022/06/28 01:06:23;;;;;;;4.90;4.18;;;;;;;;;;512487;28;1564;-85
2022/06/28 01:06:39;;;;;;;5.03;4.00;;;;;;;;;;513241;28;1522;-85
2022/06/28 01:06:54;;;;;;;4.05;3.65;;;;;;;;;;513341;28;1596;-85
2022/06/28 01:07:10;;;;;;;4.80;3.88;;;;;;;;;;513807;28;1572;-85
2022/06/28 01:07:25;;;;;;;5.97;4.33;;;;;;;;;;515906;28;1711;-85
2022/06/28 01:07:41;;;;;;;5.30;4.33;;;;;;;;;;515220;28;1543;-85
2022/06/28 01:07:56;;;;;;;4.90;4.20;;;;;;;;;;517196;28;1455;-85
2022/06/28 01:08:12;;;;;;;6.33;4.10;;;;;;;;;;519581;28;1419;-85
2022/06/28 01:08:27;;;;;;;6.22;4.20;;;;;;;;;;518769;28;1533;-85
2022/06/28 01:08:46;;;;;;;5.80;4.50;;;;;;;;;;517833;28;1667;-85
2022/06/28 01:09:01;;;;;;;5.63;5.00;;;;;;;;;;518435;28;1606;-85
2022/06/28 01:09:16;;;;;;;5.70;5.03;;;;;;;;;;517942;28;1406;-85
2022/06/28 01:09:32;;;;;;;5.40;4.90;;;;;;;;;;516959;28;1793;-85
2022/06/28 01:09:47;;;;;;;5.23;4.70;;;;;;;;;;516699;28;1639;-85
2022/06/28 01:10:03;;;;;;;6.30;4.60;;;;;;;;;;515733;28;1583;-85
2022/06/28 01:10:18;;;;;;;10.35;4.60;;;;;;;;;;515529;28;1559;-85
2022/06/28 01:10:35;;;;;;;10.80;4.57;;;;;;;;;;514180;28;1518;-85
2022/06/28 01:10:51;;;;;;;7.90;4.68;;;;;;;;;;514909;28;1696;-85
2022/06/28 01:11:19;;;;;;;6.63;4.72;;;;;;;;;;514489;28;1405;-85
2022/06/28 01:11:34;;;;;;;7.05;4.50;;;;;;;;;;517670;28;1471;-85
2022/06/28 01:11:50;;;;;;;7.17;4.80;;;;;;;;;;515927;28;1507;-84
2022/06/28 01:12:05;;;;;;;8.00;4.85;;;;;;;;;;514088;28;1707;-85
2022/06/28 01:12:21;;;;;;;6.83;4.80;;;;;;;;;;514087;28;1615;-85
2022/06/28 01:12:36;;;;;;;7.10;4.80;;;;;;;;;;516473;28;1544;-85
2022/06/28 01:12:52;;;;;;;7.03;4.93;;;;;;;;;;516075;28;1873;-85
2022/06/28 01:13:09;;;;;;;6.25;4.90;;;;;;;;;;517999;28;1476;-86
2022/06/28 01:13:24;;;;;;;7.15;5.07;;;;;;;;;;514297;28;1600;-84
2022/06/28 01:13:39;;;;;;;6.60;5.03;;;;;;;;;;514444;28;1918;-85
2022/06/28 01:13:59;;;;;;;5.77;4.80;;;;;;;;;;513879;28;1502;-85
2022/06/28 01:14:15;;;;;;;6.32;4.90;;;;;;;;;;513119;28;1472;-85
2022/06/28 01:14:31;;;;;;;7.25;4.80;;;;;;;;;;512033;28;1429;-85
2022/06/28 01:14:46;;;;;;;7.60;5.00;;;;;;;;;;513213;28;1443;-85
2022/06/28 01:15:01;;;;;;;7.13;4.80;;;;;;;;;;512296;28;1693;-85
2022/06/28 01:15:17;;;;;;;7.47;4.77;;;;;;;;;;510732;29;2741;-85
2022/06/28 01:15:33;;;;;;;6.53;4.93;;;;;;;;;;511695;29;1847;-85
2022/06/28 01:15:48;;;;;;;5.75;4.93;;;;;;;;;;512767;28;2235;-85
2022/06/28 01:16:04;;;;;;;5.67;4.90;;;;;;;;;;512627;28;1595;-85
2022/06/28 01:16:21;;;;;;;5.10;4.60;;;;;;;;;;512839;28;1421;-85
2022/06/28 01:16:37;;;;;;;5.03;4.50;;;;;;;;;;514257;28;1616;-85
2022/06/28 01:16:53;;;;;;;5.85;4.60;;;;;;;;;;514615;28;1370;-85
2022/06/28 01:17:09;;;;;;;6.90;4.75;;;;;;;;;;515337;28;1414;-85
2022/06/28 01:17:24;;;;;;;5.78;4.65;;;;;;;;;;515269;28;1443;-85
2022/06/28 01:17:40;;;;;;;5.40;4.50;;;;;;;;;;515180;28;1732;-85
2022/06/28 01:17:57;;;;;;;5.65;4.50;;;;;;;;;;515600;28;1559;-84
2022/06/28 01:18:13;;;;;;;5.63;4.30;;;;;;;;;;514521;28;1484;-85
2022/06/28 01:18:28;;;;;;;4.93;4.10;;;;;;;;;;513987;28;1595;-85
2022/06/28 01:18:44;;;;;;;4.40;4.00;;;;;;;;;;513805;28;1555;-85
2022/06/28 01:19:00;;;;;;;4.53;3.97;;;;;;;;;;514530;28;1574;-85
2022/06/28 01:19:18;;;;;;;4.70;3.90;;;;;;;;;;511706;28;1154;-85
2022/06/28 01:19:34;;;;;;;5.50;4.00;;;;;;;;;;513892;28;1351;-85
2022/06/28 01:19:49;;;;;;;4.63;4.07;;;;;;;;;;513815;28;1185;-85
2022/06/28 01:20:06;;;;;;;4.63;4.00;;;;;;;;;;515784;28;1236;-85
2022/06/28 01:20:22;;;;;;;5.63;4.10;;;;;;;;;;516139;28;864;-85
2022/06/28 01:20:40;;;;;;;5.03;4.10;;;;;;;;;;516113;28;1520;-85
2022/06/28 01:20:56;;;;;;;4.75;4.20;;;;;;;;;;518467;28;1719;-85
2022/06/28 01:21:13;;;;;;;5.22;4.22;;;;;;;;;;519119;28;1604;-85
2022/06/28 01:21:30;;;;;;;4.65;3.83;;;;;;;;;;519739;28;1585;-85
2022/06/28 01:21:49;;;;;;;4.30;3.78;;;;;;;;;;519541;28;1578;-87
2022/06/28 01:22:07;;;;;;;4.15;3.75;;;;;;;;;;516672;28;1525;-85
2022/06/28 01:22:22;;;;;;;4.25;3.80;;;;;;;;;;515921;28;1424;-85
2022/06/28 01:22:40;;;;;;;5.03;3.80;;;;;;;;;;517285;28;1495;-85
2022/06/28 01:22:55;;;;;;;5.28;3.75;;;;;;;;;;516002;28;1436;-85
2022/06/28 01:23:15;;;;;;;6.07;4.10;;;;;;;;;;517962;28;1562;-85
2022/06/28 01:23:30;;;;;;;4.85;4.00;;;;;;;;;;518273;28;1585;-86
2022/06/28 01:23:47;;;;;;;4.43;3.90;;;;;;;;;;515925;28;1652;-85
2022/06/28 01:24:03;;;;;;;4.10;3.70;;;;;;;;;;516374;28;1711;-85
2022/06/28 01:24:19;;;;;;;4.18;3.78;;;;;;;;;;516807;28;1479;-84
2022/06/28 01:24:34;;;;;;;4.50;3.85;;;;;;;;;;516352;28;1468;-85
2022/06/28 01:24:50;;;;;;;5.47;3.90;;;;;;;;;;517576;28;1524;-85
2022/06/28 01:25:08;;;;;;;5.95;4.20;;;;;;;;;;515442;28;1536;-85
2022/06/28 01:25:24;;;;;;;4.78;4.20;;;;;;;;;;515596;28;1587;-85
2022/06/28 01:25:40;;;;;;;4.13;3.83;;;;;;;;;;516997;28;1551;-85
2022/06/28 01:25:56;;;;;;;4.00;3.60;;;;;;;;;;514957;28;1701;-85
2022/06/28 01:26:13;;;;;;;4.40;3.80;;;;;;;;;;514903;28;1658;-85
2022/06/28 01:26:30;;;;;;;4.40;4.00;;;;;;;;;;513690;28;1611;-85
2022/06/28 01:26:46;;;;;;;4.40;3.85;;;;;;;;;;513868;28;1432;-85
2022/06/28 01:27:02;;;;;;;4.38;3.60;;;;;;;;;;515573;28;1603;-85
2022/06/28 01:27:18;;;;;;;4.88;3.85;;;;;;;;;;517369;28;1762;-85
2022/06/28 01:27:33;;;;;;;5.30;3.90;;;;;;;;;;513919;28;1546;-85
2022/06/28 01:27:53;;;;;;;4.43;3.80;;;;;;;;;;515002;28;1409;-85
2022/06/28 01:28:09;;;;;;;4.10;3.70;;;;;;;;;;516367;28;1646;-85
2022/06/28 01:28:24;;;;;;;4.82;3.70;;;;;;;;;;518858;28;1359;-85
2022/06/28 01:28:41;;;;;;;4.30;3.63;;;;;;;;;;517194;28;1455;-85
2022/06/28 01:28:56;;;;;;;4.25;3.45;;;;;;;;;;517313;28;1528;-85
2022/06/28 01:29:12;;;;;;;4.07;3.33;;;;;;;;;;515148;28;1925;-85
2022/06/28 01:29:28;;;;;;;3.80;3.50;;;;;;;;;;511841;28;1613;-85
2022/06/28 01:29:43;;;;;;;3.70;3.40;;;;;;;;;;514575;28;1574;-85
2022/06/28 01:29:59;;;;;;;3.67;3.30;;;;;;;;;;515338;28;1570;-85
2022/06/28 01:30:14;;;;;;;3.70;3.30;;;;;;;;;;513175;28;1537;-85
2022/06/28 01:30:30;;;;;;;3.70;3.30;;;;;;;;;;512853;28;1505;-85
2022/06/28 01:30:47;;;;;;;3.88;3.47;;;;;;;;;;512870;28;1564;-85
2022/06/28 01:31:03;;;;;;;3.90;3.50;;;;;;;;;;512735;28;1477;-85
2022/06/28 01:31:21;;;;;;;4.40;3.80;;;;;;;;;;513995;28;1305;-85
2022/06/28 01:31:36;;;;;;;4.90;3.87;;;;;;;;;;514612;28;1528;-85
2022/06/28 01:31:52;;;;;;;4.40;3.40;;;;;;;;;;517002;28;1573;-85
2022/06/28 01:32:08;;;;;;;3.92;3.20;;;;;;;;;;519164;28;1552;-85
2022/06/28 01:32:23;;;;;;;3.80;3.40;;;;;;;;;;517585;28;1698;-85
2022/06/28 01:32:40;;;;;;;3.90;3.50;;;;;;;;;;516007;28;1555;-85
2022/06/28 01:32:56;;;;;;;3.85;3.45;;;;;;;;;;514411;28;1551;-85
2022/06/28 01:33:11;;;;;;;3.70;3.40;;;;;;;;;;514349;28;1580;-85
2022/06/28 01:33:27;;;;;;;3.80;3.43;;;;;;;;;;515912;28;1759;-85
2022/06/28 01:33:42;;;;;;;3.90;3.50;;;;;;;;;;515124;28;1966;-85
2022/06/28 01:33:58;;;;;;;5.13;3.60;;;;;;;;;;514967;28;1557;-86
2022/06/28 01:34:15;;;;;;;5.53;3.40;;;;;;;;;;512563;28;1583;-85
2022/06/28 01:34:30;;;;;;;4.57;3.38;;;;;;;;;;512415;28;1533;-85
2022/06/28 01:34:45;;;;;;;4.10;3.30;;;;;;;;;;512536;28;1664;-85
2022/06/28 01:35:02;;;;;;;3.60;3.30;;;;;;;;;;512926;28;1566;-86
2022/06/28 01:35:18;;;;;;;3.55;3.25;;;;;;;;;;514170;28;1591;-85
2022/06/28 01:35:33;;;;;;;4.63;3.42;;;;;;;;;;513136;28;1509;-85
2022/06/28 01:35:49;;;;;;;5.50;3.50;;;;;;;;;;512914;28;1522;-85
2022/06/28 01:36:08;;;;;;;4.68;3.30;;;;;;;;;;513388;28;1837;-85
2022/06/28 01:36:23;;;;;;;5.20;3.47;;;;;;;;;;512803;28;1575;-85
2022/06/28 01:36:39;;;;;;;4.90;3.30;;;;;;;;;;513209;28;1366;-85
2022/06/28 01:36:54;;;;;;;3.30;3.00;;;;;;;;;;514556;28;1642;-85
2022/06/28 01:37:10;;;;;;;3.67;2.90;;;;;;;;;;516219;28;1063;-85
2022/06/28 01:37:26;;;;;;;3.58;2.90;;;;;;;;;;515525;28;1818;-85
2022/06/28 01:37:41;;;;;;;3.70;3.25;;;;;;;;;;517623;28;1545;-86
2022/06/28 01:37:57;;;;;;;4.03;3.60;;;;;;;;;;516464;28;1787;-85
2022/06/28 01:38:13;;;;;;;4.15;3.75;;;;;;;;;;514413;28;1573;-86
2022/06/28 01:38:30;;;;;;;4.60;3.63;;;;;;;;;;513534;28;1397;-85
2022/06/28 01:38:45;;;;;;;5.68;3.63;;;;;;;;;;514990;28;1710;-85
2022/06/28 01:39:01;;;;;;;4.22;3.53;;;;;;;;;;514360;28;1439;-86
2022/06/28 01:39:16;;;;;;;5.00;3.70;;;;;;;;;;510693;28;1616;-85
2022/06/28 01:39:32;;;;;;;5.73;4.07;;;;;;;;;;513293;28;1282;-86
2022/06/28 01:39:47;;;;;;;5.05;3.92;;;;;;;;;;513129;28;1703;-86
2022/06/28 01:40:04;;;;;;;5.43;3.60;;;;;;;;;;515074;28;1484;-86
2022/06/28 01:40:20;;;;;;;6.22;3.70;;;;;;;;;;516918;28;1372;-86
2022/06/28 01:40:36;;;;;;;5.78;3.65;;;;;;;;;;515978;28;1743;-86